sensor_id;sensor_type;location;lat;lon;timestamp;temperature;humidity
55331;DHT22;58851;42.984;20.336;2022-10-16T00:01:17;179.30;6502.40
55331;DHT22;58851;42.984;20.336;2022-10-16T00:03:44;179.30;6502.40
55331;DHT22;58851;42.984;20.336;2022-10-16T00:06:11;179.30;6502.40
55331;DHT22;58851;42.984;20.336;2022-10-16T00:08:37;179.30;6502.40
55331;DHT22;58851;42.984;20.336;2022-10-16T00:11:10;179.50;6502.40
55331;DHT22;58851;42.984;20.336;2022-10-16T00:13:38;179.30;6502.40
55331;DHT22;58851;42.984;20.336;2022-10-16T00:16:05;179.20;6502.40
55331;DHT22;58851;42.984;20.336;2022-10-16T00:18:31;154.50;6502.40
55331;DHT22;58851;42.984;20.336;2022-10-16T00:21:02;154.40;6502.40
55331;DHT22;58851;42.984;20.336;2022-10-16T00:23:28;154.40;6502.40
55331;DHT22;58851;42.984;20.336;2022-10-16T00:25:58;154.30;6502.40
55331;DHT22;58851;42.984;20.336;2022-10-16T00:28:24;154.10;6502.40
55331;DHT22;58851;42.984;20.336;2022-10-16T00:30:50;154.10;6502.40
55331;DHT22;58851;42.984;20.336;2022-10-16T00:33:16;154.10;512.00
55331;DHT22;58851;42.984;20.336;2022-10-16T00:35:42;154.10;486.40
55331;DHT22;58851;42.984;20.336;2022-10-16T00:38:09;154.00;6502.40
55331;DHT22;58851;42.984;20.336;2022-10-16T00:40:34;153.90;6502.40
55331;DHT22;58851;42.984;20.336;2022-10-16T00:43:00;153.80;6502.40
55331;DHT22;58851;42.984;20.336;2022-10-16T00:45:26;153.80;6502.40
55331;DHT22;58851;42.984;20.336;2022-10-16T00:47:54;153.60;6502.40
55331;DHT22;58851;42.984;20.336;2022-10-16T00:50:30;153.60;6502.40
55331;DHT22;58851;42.984;20.336;2022-10-16T00:52:57;153.80;6502.40
55331;DHT22;58851;42.984;20.336;2022-10-16T00:55:25;153.70;6502.40
55331;DHT22;58851;42.984;20.336;2022-10-16T00:57:52;153.90;6502.40
55331;DHT22;58851;42.984;20.336;2022-10-16T01:00:22;154.00;6502.40
55331;DHT22;58851;42.984;20.336;2022-10-16T01:02:57;154.00;6502.40
55331;DHT22;58851;42.984;20.336;2022-10-16T01:05:26;154.10;6502.40
55331;DHT22;58851;42.984;20.336;2022-10-16T01:13:10;154.40;6502.40
55331;DHT22;58851;42.984;20.336;2022-10-16T01:15:45;154.40;6502.40
55331;DHT22;58851;42.984;20.336;2022-10-16T01:20:58;179.30;6502.40
55331;DHT22;58851;42.984;20.336;2022-10-16T01:28:22;179.50;128.00
55331;DHT22;58851;42.984;20.336;2022-10-16T01:30:51;179.50;128.00
55331;DHT22;58851;42.984;20.336;2022-10-16T01:33:23;179.60;128.00
55331;DHT22;58851;42.984;20.336;2022-10-16T01:35:55;179.60;204.80
55331;DHT22;58851;42.984;20.336;2022-10-16T01:38:38;179.50;6502.40
55331;DHT22;58851;42.984;20.336;2022-10-16T01:41:09;179.40;6502.40
55331;DHT22;58851;42.984;20.336;2022-10-16T01:44:03;179.50;6502.40
55331;DHT22;58851;42.984;20.336;2022-10-16T01:46:28;179.50;6502.40
55331;DHT22;58851;42.984;20.336;2022-10-16T01:48:56;179.60;6502.40
55331;DHT22;58851;42.984;20.336;2022-10-16T01:51:23;179.70;6502.40
55331;DHT22;58851;42.984;20.336;2022-10-16T01:53:53;179.60;6502.40
55331;DHT22;58851;42.984;20.336;2022-10-16T01:56:20;179.50;6502.40
55331;DHT22;58851;42.984;20.336;2022-10-16T01:58:54;179.50;6502.40
55331;DHT22;58851;42.984;20.336;2022-10-16T02:01:23;179.30;6502.40
55331;DHT22;58851;42.984;20.336;2022-10-16T02:03:53;179.20;6502.40
55331;DHT22;58851;42.984;20.336;2022-10-16T02:06:19;179.20;6502.40
55331;DHT22;58851;42.984;20.336;2022-10-16T02:08:46;179.20;6502.40
55331;DHT22;58851;42.984;20.336;2022-10-16T02:11:12;179.20;6502.40
55331;DHT22;58851;42.984;20.336;2022-10-16T02:13:53;154.40;6502.40
55331;DHT22;58851;42.984;20.336;2022-10-16T02:16:21;154.40;6502.40
55331;DHT22;58851;42.984;20.336;2022-10-16T02:18:48;154.40;6502.40
55331;DHT22;58851;42.984;20.336;2022-10-16T02:21:23;154.30;6502.40
55331;DHT22;58851;42.984;20.336;2022-10-16T02:24:08;154.10;6502.40
55331;DHT22;58851;42.984;20.336;2022-10-16T02:26:41;154.00;6502.40
55331;DHT22;58851;42.984;20.336;2022-10-16T02:29:12;154.00;6502.40
55331;DHT22;58851;42.984;20.336;2022-10-16T02:31:44;153.90;6502.40
55331;DHT22;58851;42.984;20.336;2022-10-16T02:34:12;154.00;6502.40
55331;DHT22;58851;42.984;20.336;2022-10-16T02:36:40;154.10;6502.40
55331;DHT22;58851;42.984;20.336;2022-10-16T02:39:06;154.20;6502.40
55331;DHT22;58851;42.984;20.336;2022-10-16T02:41:33;154.30;6502.40
55331;DHT22;58851;42.984;20.336;2022-10-16T02:43:59;154.50;6502.40
55331;DHT22;58851;42.984;20.336;2022-10-16T02:46:25;179.20;6502.40
55331;DHT22;58851;42.984;20.336;2022-10-16T02:48:50;179.20;6502.40
55331;DHT22;58851;42.984;20.336;2022-10-16T02:51:16;179.30;6502.40
55331;DHT22;58851;42.984;20.336;2022-10-16T02:53:42;179.30;6502.40
55331;DHT22;58851;42.984;20.336;2022-10-16T02:56:08;179.40;6502.40
55331;DHT22;58851;42.984;20.336;2022-10-16T02:58:33;179.30;6502.40
55331;DHT22;58851;42.984;20.336;2022-10-16T03:00:59;179.20;6502.40
55331;DHT22;58851;42.984;20.336;2022-10-16T03:03:25;154.40;6502.40
55331;DHT22;58851;42.984;20.336;2022-10-16T03:05:51;154.30;6502.40
55331;DHT22;58851;42.984;20.336;2022-10-16T03:08:17;154.30;6502.40
55331;DHT22;58851;42.984;20.336;2022-10-16T03:10:49;154.20;6502.40
55331;DHT22;58851;42.984;20.336;2022-10-16T03:13:14;154.20;6502.40
55331;DHT22;58851;42.984;20.336;2022-10-16T03:15:40;154.00;6502.40
55331;DHT22;58851;42.984;20.336;2022-10-16T03:18:06;154.10;6502.40
55331;DHT22;58851;42.984;20.336;2022-10-16T03:20:32;154.10;6502.40
55331;DHT22;58851;42.984;20.336;2022-10-16T03:22:59;154.20;6502.40
55331;DHT22;58851;42.984;20.336;2022-10-16T03:25:24;154.20;6502.40
55331;DHT22;58851;42.984;20.336;2022-10-16T03:27:50;154.30;6502.40
55331;DHT22;58851;42.984;20.336;2022-10-16T03:30:16;154.30;6502.40
55331;DHT22;58851;42.984;20.336;2022-10-16T03:32:43;154.30;6502.40
55331;DHT22;58851;42.984;20.336;2022-10-16T03:35:09;154.30;6502.40
55331;DHT22;58851;42.984;20.336;2022-10-16T03:37:35;154.20;6502.40
55331;DHT22;58851;42.984;20.336;2022-10-16T03:40:02;154.10;6502.40
55331;DHT22;58851;42.984;20.336;2022-10-16T03:42:28;154.00;6502.40
55331;DHT22;58851;42.984;20.336;2022-10-16T03:44:53;153.80;6502.40
55331;DHT22;58851;42.984;20.336;2022-10-16T03:47:19;153.90;6502.40
55331;DHT22;58851;42.984;20.336;2022-10-16T03:49:47;153.60;6502.40
55331;DHT22;58851;42.984;20.336;2022-10-16T03:52:13;153.70;6502.40
55331;DHT22;58851;42.984;20.336;2022-10-16T03:54:39;153.60;6502.40
55331;DHT22;58851;42.984;20.336;2022-10-16T03:57:05;128.90;6502.40
55331;DHT22;58851;42.984;20.336;2022-10-16T03:59:31;153.60;6502.40
55331;DHT22;58851;42.984;20.336;2022-10-16T04:01:57;128.90;6502.40
55331;DHT22;58851;42.984;20.336;2022-10-16T04:04:22;153.60;6502.40
55331;DHT22;58851;42.984;20.336;2022-10-16T04:06:48;153.60;6502.40
55331;DHT22;58851;42.984;20.336;2022-10-16T04:09:14;128.90;6502.40
55331;DHT22;58851;42.984;20.336;2022-10-16T04:11:40;128.90;6502.40
55331;DHT22;58851;42.984;20.336;2022-10-16T04:14:05;128.80;6502.40
55331;DHT22;58851;42.984;20.336;2022-10-16T04:16:31;128.90;6502.40
55331;DHT22;58851;42.984;20.336;2022-10-16T04:18:57;128.80;6502.40
55331;DHT22;58851;42.984;20.336;2022-10-16T04:21:23;128.80;6502.40
55331;DHT22;58851;42.984;20.336;2022-10-16T04:23:49;128.80;6502.40
55331;DHT22;58851;42.984;20.336;2022-10-16T04:26:15;128.70;6502.40
55331;DHT22;58851;42.984;20.336;2022-10-16T04:28:40;128.80;6502.40
55331;DHT22;58851;42.984;20.336;2022-10-16T04:31:07;128.80;6502.40
55331;DHT22;58851;42.984;20.336;2022-10-16T04:33:33;153.70;6502.40
55331;DHT22;58851;42.984;20.336;2022-10-16T04:36:00;153.70;6502.40
55331;DHT22;58851;42.984;20.336;2022-10-16T04:38:27;153.80;6502.40
55331;DHT22;58851;42.984;20.336;2022-10-16T04:40:53;154.00;6502.40
55331;DHT22;58851;42.984;20.336;2022-10-16T04:43:19;154.20;6502.40
55331;DHT22;58851;42.984;20.336;2022-10-16T04:45:45;154.20;6502.40
55331;DHT22;58851;42.984;20.336;2022-10-16T04:48:11;154.20;6502.40
55331;DHT22;58851;42.984;20.336;2022-10-16T04:50:37;154.30;6502.40
55331;DHT22;58851;42.984;20.336;2022-10-16T04:53:03;154.30;6502.40
55331;DHT22;58851;42.984;20.336;2022-10-16T04:55:29;154.20;6502.40
55331;DHT22;58851;42.984;20.336;2022-10-16T04:57:55;154.30;6502.40
55331;DHT22;58851;42.984;20.336;2022-10-16T05:00:20;154.30;6502.40
55331;DHT22;58851;42.984;20.336;2022-10-16T05:02:49;154.40;6502.40
55331;DHT22;58851;42.984;20.336;2022-10-16T05:05:15;154.40;6502.40
55331;DHT22;58851;42.984;20.336;2022-10-16T05:07:40;179.20;6502.40
55331;DHT22;58851;42.984;20.336;2022-10-16T05:10:06;179.20;6502.40
55331;DHT22;58851;42.984;20.336;2022-10-16T05:12:32;179.20;6502.40
55331;DHT22;58851;42.984;20.336;2022-10-16T05:14:58;179.30;6502.40
55331;DHT22;58851;42.984;20.336;2022-10-16T05:17:25;179.20;6502.40
55331;DHT22;58851;42.984;20.336;2022-10-16T05:19:51;179.20;6502.40
55331;DHT22;58851;42.984;20.336;2022-10-16T05:22:17;179.20;6502.40
55331;DHT22;58851;42.984;20.336;2022-10-16T05:24:43;179.30;6502.40
55331;DHT22;58851;42.984;20.336;2022-10-16T05:27:09;179.30;6502.40
55331;DHT22;58851;42.984;20.336;2022-10-16T05:29:35;179.30;6502.40
55331;DHT22;58851;42.984;20.336;2022-10-16T05:32:01;179.30;6502.40
55331;DHT22;58851;42.984;20.336;2022-10-16T05:34:27;179.40;6502.40
55331;DHT22;58851;42.984;20.336;2022-10-16T05:36:52;179.50;6502.40
55331;DHT22;58851;42.984;20.336;2022-10-16T05:39:18;179.40;6502.40
55331;DHT22;58851;42.984;20.336;2022-10-16T05:41:45;179.50;6502.40
55331;DHT22;58851;42.984;20.336;2022-10-16T05:44:11;179.50;6502.40
55331;DHT22;58851;42.984;20.336;2022-10-16T05:46:36;179.50;6502.40
55331;DHT22;58851;42.984;20.336;2022-10-16T05:49:02;179.50;6502.40
55331;DHT22;58851;42.984;20.336;2022-10-16T05:51:28;179.50;6502.40
55331;DHT22;58851;42.984;20.336;2022-10-16T05:53:54;179.60;6502.40
55331;DHT22;58851;42.984;20.336;2022-10-16T05:56:19;179.60;384.00
55331;DHT22;58851;42.984;20.336;2022-10-16T05:58:45;179.60;460.80
55331;DHT22;58851;42.984;20.336;2022-10-16T06:01:13;179.70;409.60
55331;DHT22;58851;42.984;20.336;2022-10-16T06:03:40;179.70;332.80
55331;DHT22;58851;42.984;20.336;2022-10-16T06:06:11;179.60;281.60
55331;DHT22;58851;42.984;20.336;2022-10-16T06:08:37;179.60;6502.40
55331;DHT22;58851;42.984;20.336;2022-10-16T06:11:09;179.60;128.00
55331;DHT22;58851;42.984;20.336;2022-10-16T06:13:36;179.70;6502.40
55331;DHT22;58851;42.984;20.336;2022-10-16T06:16:02;179.80;6502.40
55331;DHT22;58851;42.984;20.336;2022-10-16T06:18:29;179.90;6502.40
55331;DHT22;58851;42.984;20.336;2022-10-16T06:21:33;180.00;6502.40
55331;DHT22;58851;42.984;20.336;2022-10-16T06:24:15;180.00;6502.40
55331;DHT22;58851;42.984;20.336;2022-10-16T06:26:40;180.10;6502.40
55331;DHT22;58851;42.984;20.336;2022-10-16T06:29:06;204.80;6502.40
55331;DHT22;58851;42.984;20.336;2022-10-16T06:31:32;204.90;6502.40
55331;DHT22;58851;42.984;20.336;2022-10-16T06:33:59;205.00;6502.40
55331;DHT22;58851;42.984;20.336;2022-10-16T06:36:26;204.90;6502.40
55331;DHT22;58851;42.984;20.336;2022-10-16T06:38:52;204.90;6502.40
55331;DHT22;58851;42.984;20.336;2022-10-16T06:41:19;204.90;6502.40
55331;DHT22;58851;42.984;20.336;2022-10-16T06:43:46;204.90;6502.40
55331;DHT22;58851;42.984;20.336;2022-10-16T06:46:14;204.90;6502.40
55331;DHT22;58851;42.984;20.336;2022-10-16T06:48:39;205.00;6502.40
55331;DHT22;58851;42.984;20.336;2022-10-16T06:51:17;204.90;6502.40
55331;DHT22;58851;42.984;20.336;2022-10-16T06:53:45;204.90;6502.40
55331;DHT22;58851;42.984;20.336;2022-10-16T06:56:17;205.00;6502.40
55331;DHT22;58851;42.984;20.336;2022-10-16T06:58:43;205.20;6502.40
55331;DHT22;58851;42.984;20.336;2022-10-16T07:01:10;205.30;6502.40
55331;DHT22;58851;42.984;20.336;2022-10-16T07:03:38;205.40;6502.40
55331;DHT22;58851;42.984;20.336;2022-10-16T07:06:06;205.10;6502.40
55331;DHT22;58851;42.984;20.336;2022-10-16T07:08:33;205.00;6502.40
55331;DHT22;58851;42.984;20.336;2022-10-16T07:11:04;205.10;6502.40
55331;DHT22;58851;42.984;20.336;2022-10-16T07:13:32;205.10;6502.40
55331;DHT22;58851;42.984;20.336;2022-10-16T07:16:04;205.00;6502.40
55331;DHT22;58851;42.984;20.336;2022-10-16T07:18:31;205.10;6502.40
55331;DHT22;58851;42.984;20.336;2022-10-16T07:21:11;205.20;6502.40
55331;DHT22;58851;42.984;20.336;2022-10-16T07:23:37;205.40;6502.40
55331;DHT22;58851;42.984;20.336;2022-10-16T07:26:04;205.40;6502.40
55331;DHT22;58851;42.984;20.336;2022-10-16T07:28:30;205.50;6502.40
55331;DHT22;58851;42.984;20.336;2022-10-16T07:31:05;205.70;6502.40
55331;DHT22;58851;42.984;20.336;2022-10-16T07:33:32;230.40;6502.40
55331;DHT22;58851;42.984;20.336;2022-10-16T07:35:58;230.50;6502.40
55331;DHT22;58851;42.984;20.336;2022-10-16T07:38:24;230.50;6502.40
55331;DHT22;58851;42.984;20.336;2022-10-16T07:40:59;230.70;6502.40
55331;DHT22;58851;42.984;20.336;2022-10-16T07:43:26;230.90;6502.40
55331;DHT22;58851;42.984;20.336;2022-10-16T07:45:52;231.20;6502.40
55331;DHT22;58851;42.984;20.336;2022-10-16T07:48:18;231.30;6502.40
55331;DHT22;58851;42.984;20.336;2022-10-16T07:50:45;256.10;6502.40
55331;DHT22;58851;42.984;20.336;2022-10-16T07:53:11;256.20;6502.40
55331;DHT22;58851;42.984;20.336;2022-10-16T07:55:37;256.20;6502.40
55331;DHT22;58851;42.984;20.336;2022-10-16T07:58:04;256.30;6502.40
55331;DHT22;58851;42.984;20.336;2022-10-16T08:00:30;231.30;6502.40
55331;DHT22;58851;42.984;20.336;2022-10-16T08:02:59;231.30;6502.40
55331;DHT22;58851;42.984;20.336;2022-10-16T08:05:27;231.30;6502.40
55331;DHT22;58851;42.984;20.336;2022-10-16T08:07:53;231.20;6502.40
55331;DHT22;58851;42.984;20.336;2022-10-16T08:10:21;231.20;6502.40
55331;DHT22;58851;42.984;20.336;2022-10-16T08:12:47;231.30;6502.40
55331;DHT22;58851;42.984;20.336;2022-10-16T08:15:13;256.10;6502.40
55331;DHT22;58851;42.984;20.336;2022-10-16T08:17:39;256.30;6502.40
55331;DHT22;58851;42.984;20.336;2022-10-16T08:20:05;256.10;6502.40
55331;DHT22;58851;42.984;20.336;2022-10-16T08:22:31;256.40;6502.40
55331;DHT22;58851;42.984;20.336;2022-10-16T08:24:57;256.60;6502.40
55331;DHT22;58851;42.984;20.336;2022-10-16T08:27:22;256.50;6502.40
55331;DHT22;58851;42.984;20.336;2022-10-16T08:29:49;256.60;6502.40
55331;DHT22;58851;42.984;20.336;2022-10-16T08:32:15;256.60;6502.40
55331;DHT22;58851;42.984;20.336;2022-10-16T08:34:40;256.60;6502.40
55331;DHT22;58851;42.984;20.336;2022-10-16T08:37:06;256.80;6502.40
55331;DHT22;58851;42.984;20.336;2022-10-16T08:39:33;256.90;6502.40
55331;DHT22;58851;42.984;20.336;2022-10-16T08:42:15;256.80;6502.40
55331;DHT22;58851;42.984;20.336;2022-10-16T08:50:27;281.70;6528.00
55331;DHT22;58851;42.984;20.336;2022-10-16T08:52:54;281.80;6528.00
55331;DHT22;58851;42.984;20.336;2022-10-16T08:57:59;281.90;6528.00
55331;DHT22;58851;42.984;20.336;2022-10-16T09:00:26;282.10;6528.00
55331;DHT22;58851;42.984;20.336;2022-10-16T09:10:49;307.30;128.00
55331;DHT22;58851;42.984;20.336;2022-10-16T09:13:40;307.40;128.00
55331;DHT22;58851;42.984;20.336;2022-10-16T09:21:24;307.90;128.00
55331;DHT22;58851;42.984;20.336;2022-10-16T09:23:51;308.00;128.00
55331;DHT22;58851;42.984;20.336;2022-10-16T09:26:17;332.80;128.00
55331;DHT22;58851;42.984;20.336;2022-10-16T09:28:45;332.90;128.00
55331;DHT22;58851;42.984;20.336;2022-10-16T09:31:21;333.20;128.00
55331;DHT22;58851;42.984;20.336;2022-10-16T09:33:54;333.20;128.00
55331;DHT22;58851;42.984;20.336;2022-10-16T09:36:22;333.50;128.00
55331;DHT22;58851;42.984;20.336;2022-10-16T09:38:48;333.60;128.00
55331;DHT22;58851;42.984;20.336;2022-10-16T09:41:21;358.40;128.00
55331;DHT22;58851;42.984;20.336;2022-10-16T09:43:52;358.50;128.00
55331;DHT22;58851;42.984;20.336;2022-10-16T09:48:53;358.70;435.20
55331;DHT22;58851;42.984;20.336;2022-10-16T09:51:37;358.90;128.00
55331;DHT22;58851;42.984;20.336;2022-10-16T09:56:36;384.00;435.20
55331;DHT22;58851;42.984;20.336;2022-10-16T09:59:14;384.20;128.00
55331;DHT22;58851;42.984;20.336;2022-10-16T10:01:41;384.50;128.00
55331;DHT22;58851;42.984;20.336;2022-10-16T10:04:08;384.60;307.20
55331;DHT22;58851;42.984;20.336;2022-10-16T10:06:50;384.70;204.80
55331;DHT22;58851;42.984;20.336;2022-10-16T10:09:39;384.90;256.00
55331;DHT22;58851;42.984;20.336;2022-10-16T10:12:06;409.70;256.00
55331;DHT22;58851;42.984;20.336;2022-10-16T10:14:50;409.80;128.00
55331;DHT22;58851;42.984;20.336;2022-10-16T10:17:27;410.00;665.60
55331;DHT22;58851;42.984;20.336;2022-10-16T10:19:55;410.20;128.00
55331;DHT22;58851;42.984;20.336;2022-10-16T10:22:26;410.40;128.00
55331;DHT22;58851;42.984;20.336;2022-10-16T10:33:24;435.50;128.00
55331;DHT22;58851;42.984;20.336;2022-10-16T10:36:20;435.70;128.00
55331;DHT22;58851;42.984;20.336;2022-10-16T10:39:04;435.70;128.00
55331;DHT22;58851;42.984;20.336;2022-10-16T10:53:09;460.90;128.00
55331;DHT22;58851;42.984;20.336;2022-10-16T10:58:46;461.20;128.00
55331;DHT22;58851;42.984;20.336;2022-10-16T11:01:22;461.20;128.00
55331;DHT22;58851;42.984;20.336;2022-10-16T11:06:50;461.70;128.00
55331;DHT22;58851;42.984;20.336;2022-10-16T11:09:24;486.50;128.00
55331;DHT22;58851;42.984;20.336;2022-10-16T11:14:30;486.70;128.00
55331;DHT22;58851;42.984;20.336;2022-10-16T11:17:01;486.80;128.00
55331;DHT22;58851;42.984;20.336;2022-10-16T11:22:22;487.00;128.00
55331;DHT22;58851;42.984;20.336;2022-10-16T11:25:18;512.00;128.00
55331;DHT22;58851;42.984;20.336;2022-10-16T11:30:30;512.50;128.00
55331;DHT22;58851;42.984;20.336;2022-10-16T11:35:46;512.70;128.00
55331;DHT22;58851;42.984;20.336;2022-10-16T11:46:48;537.90;128.00
55331;DHT22;58851;42.984;20.336;2022-10-16T11:49:20;538.10;128.00
55331;DHT22;58851;42.984;20.336;2022-10-16T11:51:56;538.40;128.00
55331;DHT22;58851;42.984;20.336;2022-10-16T11:54:38;563.20;128.00
55331;DHT22;58851;42.984;20.336;2022-10-16T11:57:24;563.30;128.00
55331;DHT22;58851;42.984;20.336;2022-10-16T12:00:17;563.30;128.00
55331;DHT22;58851;42.984;20.336;2022-10-16T12:02:57;563.40;128.00
55331;DHT22;58851;42.984;20.336;2022-10-16T12:06:30;563.50;128.00
55331;DHT22;58851;42.984;20.336;2022-10-16T12:08:29;563.70;128.00
55331;DHT22;58851;42.984;20.336;2022-10-16T12:11:19;563.90;128.00
55331;DHT22;58851;42.984;20.336;2022-10-16T12:13:45;563.90;128.00
55331;DHT22;58851;42.984;20.336;2022-10-16T12:18:49;588.80;128.00
55331;DHT22;58851;42.984;20.336;2022-10-16T12:21:16;589.00;128.00
55331;DHT22;58851;42.984;20.336;2022-10-16T12:23:54;589.20;128.00
55331;DHT22;58851;42.984;20.336;2022-10-16T12:26:38;589.30;128.00
55331;DHT22;58851;42.984;20.336;2022-10-16T12:32:03;589.30;128.00
55331;DHT22;58851;42.984;20.336;2022-10-16T12:34:39;589.50;128.00
55331;DHT22;58851;42.984;20.336;2022-10-16T12:37:21;589.50;128.00
55331;DHT22;58851;42.984;20.336;2022-10-16T12:39:49;589.70;128.00
55331;DHT22;58851;42.984;20.336;2022-10-16T12:42:22;614.40;128.00
55331;DHT22;58851;42.984;20.336;2022-10-16T12:44:48;614.40;128.00
55331;DHT22;58851;42.984;20.336;2022-10-16T12:47:37;614.50;128.00
55331;DHT22;58851;42.984;20.336;2022-10-16T12:50:03;614.80;128.00
55331;DHT22;58851;42.984;20.336;2022-10-16T12:52:48;614.90;128.00
55331;DHT22;58851;42.984;20.336;2022-10-16T12:55:19;615.10;128.00
55331;DHT22;58851;42.984;20.336;2022-10-16T12:58:03;615.20;128.00
55331;DHT22;58851;42.984;20.336;2022-10-16T13:00:57;640.00;128.00
55331;DHT22;58851;42.984;20.336;2022-10-16T13:09:23;640.60;128.00
55331;DHT22;58851;42.984;20.336;2022-10-16T13:20:04;665.90;153.60
55331;DHT22;58851;42.984;20.336;2022-10-16T13:25:26;666.20;153.60
55331;DHT22;58851;42.984;20.336;2022-10-16T13:28:03;666.30;153.60
55331;DHT22;58851;42.984;20.336;2022-10-16T13:35:36;691.50;153.60
55331;DHT22;58851;42.984;20.336;2022-10-16T13:38:17;691.60;153.60
55331;DHT22;58851;42.984;20.336;2022-10-16T13:40:54;691.80;153.60
55331;DHT22;58851;42.984;20.336;2022-10-16T13:43:47;691.70;153.60
55331;DHT22;58851;42.984;20.336;2022-10-16T13:46:24;691.80;153.60
55331;DHT22;58851;42.984;20.336;2022-10-16T13:49:12;691.90;153.60
55331;DHT22;58851;42.984;20.336;2022-10-16T13:51:39;692.10;153.60
55331;DHT22;58851;42.984;20.336;2022-10-16T13:54:04;716.80;179.20
55331;DHT22;58851;42.984;20.336;2022-10-16T13:56:32;716.80;179.20
55331;DHT22;58851;42.984;20.336;2022-10-16T13:59:03;716.90;179.20
55331;DHT22;58851;42.984;20.336;2022-10-16T14:01:49;716.90;179.20
55331;DHT22;58851;42.984;20.336;2022-10-16T14:04:16;717.00;179.20
55331;DHT22;58851;42.984;20.336;2022-10-16T14:06:45;717.10;179.20
55331;DHT22;58851;42.984;20.336;2022-10-16T14:09:24;717.40;179.20
55331;DHT22;58851;42.984;20.336;2022-10-16T14:12:03;717.10;179.20
55331;DHT22;58851;42.984;20.336;2022-10-16T14:14:42;717.50;179.20
55331;DHT22;58851;42.984;20.336;2022-10-16T14:19:49;716.90;179.20
55331;DHT22;58851;42.984;20.336;2022-10-16T14:28:04;691.20;153.60
55331;DHT22;58851;42.984;20.336;2022-10-16T14:30:33;666.10;153.60
55331;DHT22;58851;42.984;20.336;2022-10-16T14:33:18;640.80;128.00
55331;DHT22;58851;42.984;20.336;2022-10-16T14:35:45;640.20;128.00
55331;DHT22;58851;42.984;20.336;2022-10-16T14:38:19;614.90;128.00
55331;DHT22;58851;42.984;20.336;2022-10-16T14:40:48;614.40;128.00
55331;DHT22;58851;42.984;20.336;2022-10-16T14:43:21;589.40;128.00
55331;DHT22;58851;42.984;20.336;2022-10-16T14:45:52;589.10;128.00
55331;DHT22;58851;42.984;20.336;2022-10-16T14:48:19;588.90;128.00
55331;DHT22;58851;42.984;20.336;2022-10-16T14:50:46;564.00;128.00
55331;DHT22;58851;42.984;20.336;2022-10-16T14:53:13;563.70;128.00
55331;DHT22;58851;42.984;20.336;2022-10-16T14:55:40;563.60;128.00
55331;DHT22;58851;42.984;20.336;2022-10-16T14:58:19;563.20;128.00
55331;DHT22;58851;42.984;20.336;2022-10-16T15:00:45;538.30;128.00
55331;DHT22;58851;42.984;20.336;2022-10-16T15:03:11;538.30;128.00
55331;DHT22;58851;42.984;20.336;2022-10-16T15:05:37;538.00;128.00
55331;DHT22;58851;42.984;20.336;2022-10-16T15:08:03;537.70;128.00
55331;DHT22;58851;42.984;20.336;2022-10-16T15:10:31;537.60;128.00
55331;DHT22;58851;42.984;20.336;2022-10-16T15:12:58;512.80;128.00
55331;DHT22;58851;42.984;20.336;2022-10-16T15:15:39;512.60;128.00
55331;DHT22;58851;42.984;20.336;2022-10-16T15:18:05;512.40;128.00
55331;DHT22;58851;42.984;20.336;2022-10-16T15:20:35;512.10;128.00
55331;DHT22;58851;42.984;20.336;2022-10-16T15:23:03;487.30;128.00
55331;DHT22;58851;42.984;20.336;2022-10-16T15:25:34;486.90;128.00
55331;DHT22;58851;42.984;20.336;2022-10-16T15:28:02;486.70;128.00
55331;DHT22;58851;42.984;20.336;2022-10-16T15:30:28;486.60;128.00
55331;DHT22;58851;42.984;20.336;2022-10-16T15:32:54;486.50;128.00
55331;DHT22;58851;42.984;20.336;2022-10-16T15:35:20;486.40;128.00
55331;DHT22;58851;42.984;20.336;2022-10-16T15:37:47;461.70;128.00
55331;DHT22;58851;42.984;20.336;2022-10-16T15:40:14;461.50;128.00
55331;DHT22;58851;42.984;20.336;2022-10-16T15:42:40;461.50;128.00
55331;DHT22;58851;42.984;20.336;2022-10-16T15:45:06;461.30;128.00
55331;DHT22;58851;42.984;20.336;2022-10-16T15:47:34;461.30;128.00
55331;DHT22;58851;42.984;20.336;2022-10-16T15:49:59;461.20;128.00
55331;DHT22;58851;42.984;20.336;2022-10-16T15:52:25;461.10;128.00
55331;DHT22;58851;42.984;20.336;2022-10-16T15:54:51;461.00;128.00
55331;DHT22;58851;42.984;20.336;2022-10-16T15:57:17;460.80;128.00
55331;DHT22;58851;42.984;20.336;2022-10-16T15:59:43;436.10;128.00
55331;DHT22;58851;42.984;20.336;2022-10-16T16:02:09;435.90;128.00
55331;DHT22;58851;42.984;20.336;2022-10-16T16:04:35;435.70;128.00
55331;DHT22;58851;42.984;20.336;2022-10-16T16:07:01;435.40;128.00
55331;DHT22;58851;42.984;20.336;2022-10-16T16:09:29;435.20;128.00
55331;DHT22;58851;42.984;20.336;2022-10-16T16:11:55;410.40;128.00
55331;DHT22;58851;42.984;20.336;2022-10-16T16:14:21;410.30;128.00
55331;DHT22;58851;42.984;20.336;2022-10-16T16:16:47;410.30;128.00
55331;DHT22;58851;42.984;20.336;2022-10-16T16:19:13;410.20;128.00
55331;DHT22;58851;42.984;20.336;2022-10-16T16:21:41;410.10;128.00
55331;DHT22;58851;42.984;20.336;2022-10-16T16:24:07;409.90;128.00
55331;DHT22;58851;42.984;20.336;2022-10-16T16:26:34;409.90;128.00
55331;DHT22;58851;42.984;20.336;2022-10-16T16:29:03;409.70;128.00
55331;DHT22;58851;42.984;20.336;2022-10-16T16:31:30;409.70;128.00
55331;DHT22;58851;42.984;20.336;2022-10-16T16:33:57;384.90;128.00
55331;DHT22;58851;42.984;20.336;2022-10-16T16:36:24;384.70;128.00
55331;DHT22;58851;42.984;20.336;2022-10-16T16:38:50;384.70;128.00
55331;DHT22;58851;42.984;20.336;2022-10-16T16:41:21;384.60;128.00
55331;DHT22;58851;42.984;20.336;2022-10-16T16:43:49;384.20;128.00
55331;DHT22;58851;42.984;20.336;2022-10-16T16:46:19;384.20;128.00
55331;DHT22;58851;42.984;20.336;2022-10-16T16:48:45;384.30;128.00
55331;DHT22;58851;42.984;20.336;2022-10-16T16:51:16;384.20;128.00
55331;DHT22;58851;42.984;20.336;2022-10-16T16:53:51;384.20;128.00
55331;DHT22;58851;42.984;20.336;2022-10-16T16:56:18;384.00;128.00